Time;durP1;ratioP1;P1;durP2;ratioP2;P2;SDS_P1;SDS_P2;PMS_P1;PMS_P2;Temp;Humidity;BMP_temperature;BMP_pressure;BME280_temperature;BME280_humidity;BME280_pressure;Samples;Min_cycle;Max_cycle;Signal;HPM_P1;HPM_P2
2023/10/26 00:00:19;;;;;;;10.57;8.63;;;12.10;99.90;;;;;;4111183;28;20468;-65
2023/10/26 00:02:20;;;;;;;11.43;9.05;;;12.10;99.90;;;;;;4127753;28;20073;-65
2023/10/26 00:04:20;;;;;;;9.13;7.55;;;12.10;99.90;;;;;;4128363;28;20118;-71
2023/10/26 00:06:21;;;;;;;14.90;9.57;;;12.10;99.90;;;;;;4126957;28;20477;-72
2023/10/26 00:08:22;;;;;;;11.07;9.35;;;12.10;99.90;;;;;;4128707;28;20038;-72
2023/10/26 00:10:22;;;;;;;10.15;8.48;;;12.10;99.90;;;;;;4137994;28;20033;-71
2023/10/26 00:12:23;;;;;;;10.00;7.97;;;12.10;99.90;;;;;;4142950;28;20034;-72
2023/10/26 00:14:23;;;;;;;10.25;7.88;;;12.00;99.90;;;;;;4142195;28;20033;-72
2023/10/26 00:16:24;;;;;;;9.82;7.38;;;12.00;99.90;;;;;;4121646;28;20037;-72
2023/10/26 00:18:25;;;;;;;10.63;7.95;;;12.10;99.90;;;;;;4127867;28;20097;-72
2023/10/26 00:20:25;;;;;;;9.20;7.38;;;12.00;99.90;;;;;;4138515;28;20042;-72
2023/10/26 00:22:28;;;;;;;11.00;7.90;;;12.00;99.90;;;;;;4132495;28;20403;-72
2023/10/26 00:24:29;;;;;;;10.07;8.18;;;12.00;99.90;;;;;;4129652;28;20125;-71
2023/10/26 00:26:30;;;;;;;8.57;7.20;;;12.00;99.90;;;;;;4137480;28;20089;-71
2023/10/26 00:28:30;;;;;;;11.60;8.75;;;12.00;99.90;;;;;;4127461;28;20035;-71
2023/10/26 00:30:32;;;;;;;8.77;7.53;;;12.00;99.90;;;;;;4115158;28;20123;-71
2023/10/26 00:32:33;;;;;;;;;;;12.00;99.90;;;;;;4133126;28;20042;-71
2023/10/26 00:34:35;;;;;;;8.40;6.55;;;12.00;99.90;;;;;;4133412;28;20308;-71
2023/10/26 00:36:35;;;;;;;7.68;6.50;;;12.00;99.90;;;;;;4126180;28;20042;-72
2023/10/26 00:38:36;;;;;;;10.05;7.45;;;12.00;99.90;;;;;;4118280;28;20064;-71
2023/10/26 00:40:36;;;;;;;8.75;7.40;;;12.00;99.90;;;;;;4126594;28;20046;-71
2023/10/26 00:42:37;;;;;;;12.95;8.70;;;12.00;99.90;;;;;;4127146;28;20089;-71
2023/10/26 00:44:37;;;;;;;10.20;7.50;;;12.00;99.90;;;;;;4115613;28;20077;-71
2023/10/26 00:46:38;;;;;;;9.80;7.72;;;12.00;99.90;;;;;;4135282;28;20030;-72
2023/10/26 00:48:39;;;;;;;11.02;7.78;;;12.00;99.90;;;;;;4131167;28;20061;-72
2023/10/26 00:50:41;;;;;;;9.43;7.70;;;12.00;99.90;;;;;;4135927;28;20042;-71
2023/10/26 00:52:42;;;;;;;9.50;7.50;;;11.90;99.90;;;;;;4128368;28;20096;-71
2023/10/26 00:54:43;;;;;;;8.50;6.68;;;12.00;99.90;;;;;;4127363;28;20042;-71
2023/10/26 00:56:44;;;;;;;9.23;7.35;;;12.00;99.90;;;;;;4126022;28;20544;-72
2023/10/26 00:58:45;;;;;;;9.07;6.57;;;12.00;99.90;;;;;;4127210;28;20031;-72
2023/10/26 01:00:45;;;;;;;9.13;7.75;;;12.00;99.90;;;;;;4134085;28;20042;-72
2023/10/26 01:02:46;;;;;;;10.38;7.80;;;12.00;99.90;;;;;;4130440;28;20041;-72
2023/10/26 01:04:47;;;;;;;11.77;8.88;;;12.00;99.90;;;;;;4127607;28;20039;-72
2023/10/26 01:06:48;;;;;;;10.10;7.68;;;12.00;99.90;;;;;;4130779;28;20042;-72
2023/10/26 01:08:49;;;;;;;12.85;8.23;;;12.00;99.90;;;;;;4127554;28;20031;-72
2023/10/26 01:10:49;;;;;;;14.02;7.90;;;12.00;99.90;;;;;;4127664;28;20061;-71
2023/10/26 01:12:50;;;;;;;13.85;8.55;;;12.00;99.90;;;;;;4132596;28;20092;-72
2023/10/26 01:14:51;;;;;;;10.63;8.18;;;12.00;99.90;;;;;;4138593;28;20399;-71
2023/10/26 01:16:52;;;;;;;12.80;9.07;;;11.90;99.90;;;;;;4130892;28;20038;-71
2023/10/26 01:18:53;;;;;;;12.52;9.30;;;11.90;99.90;;;;;;4129670;28;20088;-70
2023/10/26 01:20:54;;;;;;;12.30;8.52;;;11.90;99.90;;;;;;4112576;28;20132;-71
2023/10/26 01:22:54;;;;;;;10.70;8.00;;;11.90;99.90;;;;;;4126960;28;20081;-71
2023/10/26 01:24:55;;;;;;;9.15;7.43;;;11.90;99.90;;;;;;4127339;28;20051;-71
2023/10/26 01:26:56;;;;;;;10.70;8.50;;;11.90;99.90;;;;;;4108251;28;20074;-70
2023/10/26 01:29:02;;;;;;;9.70;8.00;;;11.90;99.90;;;;;;4133621;28;20054;-70
2023/10/26 01:31:03;;;;;;;9.93;7.88;;;12.00;99.90;;;;;;4141890;28;20042;-71
2023/10/26 01:33:04;;;;;;;9.90;8.05;;;11.90;99.90;;;;;;4140001;28;20026;-71
2023/10/26 01:35:05;;;;;;;13.45;8.60;;;11.90;99.90;;;;;;4126421;28;20035;-71
2023/10/26 01:37:05;;;;;;;9.95;8.45;;;11.90;99.90;;;;;;4126026;28;20041;-71
2023/10/26 01:39:06;;;;;;;10.75;8.07;;;11.90;99.90;;;;;;4129782;28;20125;-71
2023/10/26 01:41:07;;;;;;;8.98;7.45;;;11.90;99.90;;;;;;4126596;28;20823;-71
2023/10/26 01:43:07;;;;;;;11.00;8.77;;;12.00;99.90;;;;;;4112183;28;20074;-70
2023/10/26 01:45:08;;;;;;;12.70;8.55;;;12.00;99.90;;;;;;4126673;28;20113;-71
2023/10/26 01:47:10;;;;;;;11.43;8.38;;;11.90;99.90;;;;;;4125937;28;20038;-70
2023/10/26 01:49:10;;;;;;;10.35;8.30;;;12.00;99.90;;;;;;4125647;28;20038;-70
2023/10/26 01:51:11;;;;;;;10.50;8.48;;;12.00;99.90;;;;;;4126028;28;20523;-70
2023/10/26 01:53:12;;;;;;;11.60;8.85;;;12.00;99.90;;;;;;4126924;28;20494;-70
2023/10/26 01:55:12;;;;;;;8.55;7.63;;;11.90;99.90;;;;;;4132368;28;20113;-71
2023/10/26 01:57:13;;;;;;;9.68;7.88;;;11.90;99.90;;;;;;4129497;28;20533;-71
2023/10/26 01:59:14;;;;;;;10.95;8.32;;;11.90;99.90;;;;;;4132665;28;20038;-70
2023/10/26 02:01:14;;;;;;;10.18;8.15;;;11.90;99.90;;;;;;4128768;28;20042;-70
2023/10/26 02:03:18;;;;;;;11.52;9.13;;;11.90;99.90;;;;;;4130062;28;20158;-70
2023/10/26 02:05:18;;;;;;;15.38;9.98;;;11.90;99.90;;;;;;4143049;28;20158;-70
2023/10/26 02:07:19;;;;;;;13.70;9.15;;;11.90;99.90;;;;;;4137688;28;20038;-70
2023/10/26 02:09:19;;;;;;;12.82;9.48;;;11.90;99.90;;;;;;4130069;28;20125;-70
2023/10/26 02:11:20;;;;;;;9.82;8.43;;;11.90;99.90;;;;;;4144038;28;20038;-71
2023/10/26 02:13:20;;;;;;;15.88;9.13;;;11.90;99.90;;;;;;4144809;28;20035;-70
2023/10/26 02:15:21;;;;;;;13.70;9.57;;;11.90;99.90;;;;;;4133450;28;20038;-70
2023/10/26 02:17:22;;;;;;;8.68;7.78;;;11.90;99.90;;;;;;4131186;28;20035;-71
2023/10/26 02:19:22;;;;;;;12.65;9.27;;;11.90;99.90;;;;;;4139559;28;20117;-70
2023/10/26 02:21:23;;;;;;;12.35;9.38;;;11.90;99.90;;;;;;4134401;28;20045;-70
2023/10/26 02:23:24;;;;;;;12.27;9.15;;;11.80;99.90;;;;;;4134131;28;20042;-70
2023/10/26 02:25:25;;;;;;;10.60;9.38;;;11.90;99.90;;;;;;4128957;28;20042;-79
2023/10/26 02:27:26;;;;;;;12.98;9.43;;;11.90;99.90;;;;;;4129026;28;20077;-79
2023/10/26 02:29:26;;;;;;;12.25;9.00;;;11.90;99.90;;;;;;4134592;28;20442;-79
2023/10/26 02:31:27;;;;;;;13.32;10.52;;;11.90;99.90;;;;;;4144320;28;20055;-79
2023/10/26 02:33:27;;;;;;;11.13;8.93;;;11.90;99.90;;;;;;4145810;28;20041;-79
2023/10/26 02:35:28;;;;;;;18.75;10.10;;;11.80;99.90;;;;;;4131918;28;20178;-78
2023/10/26 02:37:28;;;;;;;12.93;8.98;;;11.80;99.90;;;;;;4131889;28;20431;-79
2023/10/26 02:39:29;;;;;;;11.27;9.52;;;11.90;99.90;;;;;;4132270;28;20038;-78
2023/10/26 02:41:30;;;;;;;13.70;10.95;;;11.90;99.90;;;;;;4144724;28;20033;-79
2023/10/26 02:43:31;;;;;;;12.98;10.00;;;11.80;99.90;;;;;;4144847;28;20470;-79
2023/10/26 02:45:31;;;;;;;14.05;11.50;;;11.80;99.90;;;;;;4134234;28;20046;-79
2023/10/26 02:47:32;;;;;;;11.23;9.70;;;11.80;99.90;;;;;;4140320;28;20136;-79
2023/10/26 02:49:33;;;;;;;13.63;10.95;;;11.80;99.90;;;;;;4137753;28;20391;-79
2023/10/26 02:51:33;;;;;;;11.52;9.55;;;11.80;99.90;;;;;;4128533;28;20034;-79
2023/10/26 02:53:34;;;;;;;11.77;9.95;;;11.80;99.90;;;;;;4135799;28;20041;-79
2023/10/26 02:55:34;;;;;;;14.45;11.15;;;11.80;99.90;;;;;;4135411;28;20030;-79
2023/10/26 02:57:35;;;;;;;12.93;10.40;;;11.80;99.90;;;;;;4135413;28;20037;-79
2023/10/26 02:59:36;;;;;;;11.93;9.18;;;11.80;99.90;;;;;;4136732;28;20038;-79
2023/10/26 03:01:36;;;;;;;15.20;10.40;;;11.80;99.90;;;;;;4144079;28;20030;-80
2023/10/26 03:03:37;;;;;;;13.68;9.48;;;11.80;99.90;;;;;;4145157;28;20562;-79
2023/10/26 03:05:38;;;;;;;13.25;10.35;;;11.80;99.90;;;;;;4128978;28;20109;-80
2023/10/26 03:07:38;;;;;;;14.45;11.60;;;11.80;99.90;;;;;;4135647;28;20089;-79
2023/10/26 03:09:39;;;;;;;15.02;11.05;;;11.80;99.90;;;;;;4143223;28;20380;-80
2023/10/26 03:11:39;;;;;;;12.18;10.23;;;11.80;99.90;;;;;;4143569;28;20398;-79
2023/10/26 03:13:40;;;;;;;16.52;12.32;;;11.80;99.90;;;;;;4145122;28;20029;-79
2023/10/26 03:15:41;;;;;;;15.52;10.35;;;11.90;99.90;;;;;;4120343;28;20827;-79
2023/10/26 03:17:42;;;;;;;13.52;11.27;;;11.80;99.90;;;;;;4134456;28;20045;-80
2023/10/26 03:19:42;;;;;;;15.13;11.05;;;11.80;99.90;;;;;;4123977;28;20042;-79
2023/10/26 03:21:43;;;;;;;12.30;9.88;;;11.80;99.90;;;;;;4130088;28;20050;-80
2023/10/26 03:23:43;;;;;;;12.57;10.55;;;11.80;99.90;;;;;;4143605;28;20065;-80
2023/10/26 03:25:44;;;;;;;11.98;9.73;;;11.80;99.90;;;;;;4139255;28;20042;-81
2023/10/26 03:27:45;;;;;;;12.73;10.27;;;11.80;99.90;;;;;;4138327;28;20117;-80
2023/10/26 03:29:45;;;;;;;11.60;9.20;;;11.80;99.90;;;;;;4138879;28;20053;-80
2023/10/26 03:31:46;;;;;;;14.02;9.77;;;11.80;99.90;;;;;;4131762;28;20043;-80
2023/10/26 03:33:47;;;;;;;14.02;10.75;;;11.80;99.90;;;;;;4132525;28;20085;-79
2023/10/26 03:35:48;;;;;;;14.93;11.73;;;11.70;99.90;;;;;;4127452;28;20557;-79
2023/10/26 03:37:48;;;;;;;11.43;9.30;;;11.70;99.90;;;;;;4133145;28;20045;-80
2023/10/26 03:39:49;;;;;;;11.95;9.65;;;11.70;99.90;;;;;;4136210;28;20502;-80
2023/10/26 03:41:49;;;;;;;15.25;10.57;;;11.70;99.90;;;;;;4128756;28;20119;-80
2023/10/26 03:43:50;;;;;;;12.98;10.05;;;11.70;99.90;;;;;;4128717;28;25390;-69
2023/10/26 03:45:51;;;;;;;10.77;9.23;;;11.70;99.90;;;;;;4127111;28;20034;-71
2023/10/26 03:47:51;;;;;;;10.10;8.25;;;11.70;99.90;;;;;;4127886;28;20085;-71
2023/10/26 03:49:52;;;;;;;10.27;8.60;;;11.70;99.90;;;;;;4128514;28;20745;-72
2023/10/26 03:51:53;;;;;;;11.10;8.70;;;11.70;99.90;;;;;;4134112;28;20034;-71
2023/10/26 03:53:53;;;;;;;13.43;9.50;;;11.70;99.90;;;;;;4128200;28;20475;-80
2023/10/26 03:55:55;;;;;;;13.65;10.15;;;11.70;99.90;;;;;;4126930;28;20030;-80
2023/10/26 03:57:55;;;;;;;11.63;9.75;;;11.70;99.90;;;;;;4127299;28;20034;-80
2023/10/26 03:59:56;;;;;;;12.98;9.43;;;11.70;99.90;;;;;;4127605;28;20027;-80
2023/10/26 04:01:56;;;;;;;13.25;10.93;;;11.70;99.90;;;;;;4125202;28;20064;-80
2023/10/26 04:03:57;;;;;;;14.05;10.43;;;11.70;99.90;;;;;;4127867;28;20061;-81
2023/10/26 04:05:57;;;;;;;11.65;9.75;;;11.70;99.90;;;;;;4126831;28;20038;-80
2023/10/26 04:08:00;;;;;;;12.25;9.07;;;11.70;99.90;;;;;;4126720;28;20034;-76
2023/10/26 04:10:05;;;;;;;14.88;10.70;;;11.70;99.90;;;;;;4126542;28;20077;-79
2023/10/26 04:12:06;;;;;;;12.15;9.75;;;11.70;99.90;;;;;;4128332;28;20475;-79
2023/10/26 04:14:07;;;;;;;14.43;10.93;;;11.70;99.90;;;;;;4140565;28;20121;-79
2023/10/26 04:16:08;;;;;;;15.35;11.95;;;11.70;99.90;;;;;;4129367;28;20042;-79
2023/10/26 04:18:08;;;;;;;18.40;13.00;;;11.70;99.90;;;;;;4109380;28;20514;-79
2023/10/26 04:20:10;;;;;;;11.95;9.75;;;11.70;99.90;;;;;;4133527;28;20030;-79
2023/10/26 04:22:11;;;;;;;10.65;9.02;;;11.70;99.90;;;;;;4131504;28;20037;-79
2023/10/26 04:24:11;;;;;;;13.02;10.50;;;11.70;99.90;;;;;;4127949;28;20230;-79
2023/10/26 04:26:12;;;;;;;12.75;10.57;;;11.60;99.90;;;;;;4127020;28;20042;-80
2023/10/26 04:28:13;;;;;;;14.20;10.32;;;11.70;99.90;;;;;;4134184;28;20037;-79
2023/10/26 04:30:14;;;;;;;14.43;10.52;;;11.60;99.90;;;;;;4135136;28;20054;-80
2023/10/26 04:32:14;;;;;;;16.33;11.60;;;11.70;99.90;;;;;;4123619;28;20434;-79
2023/10/26 04:34:15;;;;;;;13.60;10.88;;;11.60;99.90;;;;;;4127965;28;20049;-79
2023/10/26 04:36:16;;;;;;;12.75;10.60;;;11.70;99.90;;;;;;4126376;28;20545;-80
2023/10/26 04:38:16;;;;;;;13.80;11.10;;;11.60;99.90;;;;;;4124532;28;20104;-80
2023/10/26 04:40:17;;;;;;;13.13;10.25;;;11.70;99.90;;;;;;4124946;28;20434;-80
2023/10/26 04:42:18;;;;;;;13.18;10.68;;;11.60;99.90;;;;;;4127268;28;20041;-80
2023/10/26 04:44:18;;;;;;;16.15;10.68;;;11.60;99.90;;;;;;4129865;28;20049;-78
2023/10/26 04:46:19;;;;;;;12.77;9.68;;;11.60;99.90;;;;;;4121984;28;20399;-79
2023/10/26 04:48:19;;;;;;;13.10;9.90;;;11.60;99.90;;;;;;4128335;28;20034;-79
2023/10/26 04:50:20;;;;;;;11.52;8.88;;;11.60;99.90;;;;;;4133568;28;20502;-80
2023/10/26 04:52:21;;;;;;;14.68;10.45;;;11.60;99.90;;;;;;4127844;28;20045;-80
2023/10/26 04:54:21;;;;;;;12.07;9.35;;;11.60;99.90;;;;;;4142053;28;20074;-80
2023/10/26 04:56:22;;;;;;;12.77;9.90;;;11.60;99.90;;;;;;4125495;28;20165;-80
2023/10/26 04:58:23;;;;;;;12.13;9.75;;;11.60;99.90;;;;;;4127536;28;20391;-80
2023/10/26 05:00:23;;;;;;;13.43;10.35;;;11.60;99.90;;;;;;4106914;28;20035;-79
2023/10/26 05:02:24;;;;;;;15.18;11.20;;;11.60;99.90;;;;;;4141728;28;20034;-81
2023/10/26 05:04:24;;;;;;;12.38;10.32;;;11.60;99.90;;;;;;4130644;28;20399;-71
2023/10/26 05:06:25;;;;;;;14.85;11.50;;;11.60;99.90;;;;;;4125860;28;20140;-71
2023/10/26 05:08:26;;;;;;;13.90;11.27;;;11.70;99.90;;;;;;4127612;28;20061;-71
2023/10/26 05:10:27;;;;;;;16.80;12.65;;;11.70;99.90;;;;;;4124632;28;20033;-71
2023/10/26 05:12:28;;;;;;;15.75;12.07;;;11.70;99.90;;;;;;4111262;28;20067;-71
2023/10/26 05:14:28;;;;;;;12.77;10.48;;;11.70;99.90;;;;;;4132901;28;20034;-71
2023/10/26 05:16:29;;;;;;;15.65;12.18;;;11.70;99.90;;;;;;4125678;28;20125;-71
2023/10/26 05:18:30;;;;;;;15.20;12.07;;;11.70;99.90;;;;;;4130144;28;20145;-71
2023/10/26 05:20:32;;;;;;;15.75;12.30;;;11.60;99.90;;;;;;4127489;28;21545;-71
2023/10/26 05:22:33;;;;;;;;;;;11.70;99.90;;;;;;4131521;28;20471;-70
2023/10/26 05:24:34;;;;;;;13.95;10.75;;;11.70;99.90;;;;;;4128888;28;19925;-70
2023/10/26 05:26:34;;;;;;;15.32;11.13;;;11.70;99.90;;;;;;4128274;28;20526;-70
2023/10/26 05:28:35;;;;;;;17.30;12.40;;;11.70;99.90;;;;;;4127352;28;20121;-71
2023/10/26 05:30:36;;;;;;;18.23;12.90;;;11.70;99.90;;;;;;4128867;28;20031;-71
2023/10/26 05:32:37;;;;;;;15.13;11.25;;;11.70;99.90;;;;;;4128184;28;20033;-72
2023/10/26 05:34:37;;;;;;;13.63;11.43;;;11.70;99.90;;;;;;4126248;28;20038;-71
2023/10/26 05:36:39;;;;;;;17.33;11.57;;;11.70;99.90;;;;;;4124469;28;20041;-71
2023/10/26 05:38:39;;;;;;;14.40;11.35;;;11.70;99.90;;;;;;4129980;28;20459;-71
2023/10/26 05:40:49;;;;;;;15.32;12.57;;;11.70;99.90;;;;;;4130219;28;20050;-71
2023/10/26 05:42:49;;;;;;;17.10;12.93;;;11.70;99.90;;;;;;4127724;28;20538;-71
2023/10/26 05:44:50;;;;;;;16.08;12.13;;;11.70;99.90;;;;;;4128161;28;20058;-71
2023/10/26 05:46:50;;;;;;;18.48;13.15;;;11.70;99.90;;;;;;4127281;28;20030;-72
2023/10/26 05:48:51;;;;;;;16.95;12.13;;;11.70;99.90;;;;;;4133380;28;20085;-72
2023/10/26 05:50:52;;;;;;;17.55;13.32;;;11.70;99.90;;;;;;4130832;28;20363;-72
2023/10/26 05:52:52;;;;;;;15.82;11.98;;;11.70;99.90;;;;;;4129594;28;20042;-72
2023/10/26 05:54:54;;;;;;;15.35;11.90;;;11.70;99.90;;;;;;4126361;28;20038;-71
2023/10/26 05:56:54;;;;;;;17.63;13.13;;;11.60;99.90;;;;;;4131484;28;20034;-71
2023/10/26 05:58:55;;;;;;;15.40;11.52;;;11.70;99.90;;;;;;4132239;28;20038;-71
2023/10/26 06:00:55;;;;;;;18.98;12.65;;;11.70;99.90;;;;;;4127020;28;20042;-72
2023/10/26 06:02:56;;;;;;;22.92;14.43;;;11.70;99.90;;;;;;4129774;28;20120;-71
2023/10/26 06:04:57;;;;;;;19.05;14.07;;;11.60;99.90;;;;;;4133078;28;20056;-71
2023/10/26 06:06:57;;;;;;;18.23;13.55;;;11.60;99.90;;;;;;4129344;28;20038;-71
2023/10/26 06:08:59;;;;;;;19.70;13.23;;;11.60;99.90;;;;;;4130053;28;20432;-71
2023/10/26 06:11:00;;;;;;;16.85;12.65;;;11.60;99.90;;;;;;4130557;28;20043;-72
2023/10/26 06:13:02;;;;;;;16.83;12.70;;;11.60;99.90;;;;;;4129891;28;20049;-71
2023/10/26 06:15:03;;;;;;;17.15;12.05;;;11.60;99.90;;;;;;4127366;28;20053;-71
2023/10/26 06:17:04;;;;;;;17.63;13.13;;;11.60;99.90;;;;;;4110880;28;20435;-71
2023/10/26 06:19:04;;;;;;;16.38;12.73;;;11.50;99.90;;;;;;4132163;28;20034;-69
2023/10/26 06:21:05;;;;;;;16.65;12.95;;;11.50;99.90;;;;;;4110593;28;20038;-69
2023/10/26 06:23:07;;;;;;;21.48;15.55;;;11.60;99.90;;;;;;4126097;28;20041;-69
2023/10/26 06:25:08;;;;;;;18.40;13.90;;;11.60;99.90;;;;;;4128257;28;20089;-70
2023/10/26 06:27:08;;;;;;;18.75;13.40;;;11.50;99.90;;;;;;4132711;28;20031;-69
2023/10/26 06:29:09;;;;;;;18.70;14.23;;;11.60;99.90;;;;;;4120103;28;20042;-69
2023/10/26 06:31:11;;;;;;;19.58;13.75;;;11.60;99.90;;;;;;4141388;28;20034;-69
2023/10/26 06:33:13;;;;;;;16.67;12.60;;;11.60;99.90;;;;;;4144171;28;20060;-68
2023/10/26 06:35:13;;;;;;;19.70;14.88;;;11.60;99.90;;;;;;4143681;28;20394;-69
2023/10/26 06:37:14;;;;;;;17.10;13.65;;;11.60;99.90;;;;;;4145632;28;20030;-69
2023/10/26 06:39:14;;;;;;;18.05;13.70;;;11.60;99.90;;;;;;4145452;28;20052;-69
2023/10/26 06:41:15;;;;;;;19.23;14.10;;;11.60;99.90;;;;;;4145272;28;20045;-69
2023/10/26 06:43:16;;;;;;;19.23;14.90;;;11.60;99.90;;;;;;4145270;28;20030;-69
2023/10/26 06:45:16;;;;;;;19.13;13.98;;;11.60;99.90;;;;;;4142457;28;20034;-69
2023/10/26 06:47:17;;;;;;;19.88;15.02;;;11.60;99.90;;;;;;4144786;28;20030;-69
2023/10/26 06:49:17;;;;;;;20.42;16.02;;;11.60;99.90;;;;;;4147309;28;20380;-69
2023/10/26 06:51:18;;;;;;;18.55;13.88;;;11.60;99.90;;;;;;4144204;28;20034;-69
2023/10/26 06:53:19;;;;;;;19.98;14.13;;;11.60;99.90;;;;;;4144515;28;20482;-68
2023/10/26 06:55:19;;;;;;;19.80;14.50;;;11.60;99.90;;;;;;4143188;28;20038;-68
2023/10/26 06:57:20;;;;;;;18.77;14.68;;;11.60;99.90;;;;;;4147957;28;20394;-68
2023/10/26 06:59:20;;;;;;;21.20;15.35;;;11.70;99.90;;;;;;4146534;28;20107;-68
2023/10/26 07:01:21;;;;;;;19.23;14.23;;;11.70;99.90;;;;;;4142065;28;20044;-68
2023/10/26 07:03:22;;;;;;;17.80;13.75;;;11.70;99.90;;;;;;4141598;28;20775;-68
2023/10/26 07:05:22;;;;;;;18.77;14.07;;;11.70;99.90;;;;;;4138248;28;20189;-68
2023/10/26 07:07:23;;;;;;;19.10;14.18;;;11.70;99.90;;;;;;4141547;28;20081;-68
2023/10/26 07:09:24;;;;;;;17.48;13.23;;;11.70;99.90;;;;;;4141763;28;20041;-68
2023/10/26 07:11:25;;;;;;;17.08;12.85;;;11.70;99.90;;;;;;4139871;28;20502;-68
2023/10/26 07:13:26;;;;;;;20.77;15.20;;;11.70;99.90;;;;;;4142343;28;20593;-68
2023/10/26 07:15:26;;;;;;;16.67;13.15;;;11.70;99.90;;;;;;4138947;28;21067;-68
2023/10/26 07:17:27;;;;;;;17.52;12.73;;;11.70;99.90;;;;;;4155915;28;20037;-68
2023/10/26 07:19:27;;;;;;;19.65;14.10;;;11.70;99.90;;;;;;4139760;28;20030;-68
2023/10/26 07:21:28;;;;;;;17.30;12.93;;;11.70;99.90;;;;;;4140305;28;20034;-68
2023/10/26 07:23:29;;;;;;;17.55;13.48;;;11.70;99.90;;;;;;4141666;28;20026;-69
2023/10/26 07:25:29;;;;;;;17.02;13.55;;;11.70;99.90;;;;;;4140327;28;20033;-68
2023/10/26 07:27:30;;;;;;;19.60;14.40;;;11.70;99.90;;;;;;4146183;28;20072;-68
2023/10/26 07:29:30;;;;;;;17.98;14.10;;;11.70;99.90;;;;;;4132521;28;20069;-68
2023/10/26 07:31:31;;;;;;;19.10;14.68;;;11.70;99.90;;;;;;4122444;28;20030;-68
2023/10/26 07:33:31;;;;;;;21.75;16.00;;;11.70;99.90;;;;;;4123980;28;20070;-68
2023/10/26 07:35:38;;;;;;;21.02;14.63;;;11.70;99.90;;;;;;4120154;28;20035;-69
2023/10/26 07:37:39;;;;;;;18.25;13.20;;;11.70;99.90;;;;;;4123164;28;20041;-69
2023/10/26 07:39:39;;;;;;;15.90;12.52;;;11.70;99.90;;;;;;4107526;28;20563;-69
2023/10/26 07:41:40;;;;;;;17.40;12.45;;;11.70;99.90;;;;;;4122855;28;20046;-69
2023/10/26 07:43:41;;;;;;;15.55;11.32;;;11.70;99.90;;;;;;4107063;28;20085;-69
2023/10/26 07:45:41;;;;;;;15.77;11.82;;;11.70;99.90;;;;;;4122220;28;20133;-69
2023/10/26 07:47:42;;;;;;;15.18;11.35;;;11.70;99.90;;;;;;4123964;28;20034;-68
2023/10/26 07:49:42;;;;;;;20.10;14.48;;;11.70;99.90;;;;;;4123951;28;20372;-69
2023/10/26 07:51:43;;;;;;;16.95;12.30;;;11.70;99.90;;;;;;4119568;28;20388;-68
2023/10/26 07:53:44;;;;;;;15.93;12.23;;;11.70;99.90;;;;;;4119773;28;20046;-69
2023/10/26 07:55:45;;;;;;;20.55;12.98;;;11.70;99.90;;;;;;4121662;28;20026;-68
2023/10/26 07:57:45;;;;;;;19.38;12.10;;;11.70;99.90;;;;;;4125100;28;20486;-69
2023/10/26 07:59:46;;;;;;;19.23;13.32;;;11.70;99.90;;;;;;4123795;28;20062;-68
2023/10/26 08:01:47;;;;;;;17.25;12.23;;;11.70;99.90;;;;;;4120092;28;20043;-68
2023/10/26 08:03:48;;;;;;;16.13;11.90;;;11.70;99.90;;;;;;4124440;28;20390;-69
2023/10/26 08:06:02;;;;;;;15.27;10.68;;;11.70;99.90;;;;;;4122051;28;20049;-69
2023/10/26 08:08:03;;;;;;;16.13;11.15;;;11.70;99.90;;;;;;4123844;28;20474;-68
2023/10/26 08:10:04;;;;;;;14.70;11.07;;;11.80;99.90;;;;;;4123320;28;20093;-69
2023/10/26 08:12:05;;;;;;;20.98;12.75;;;11.80;99.90;;;;;;4121165;28;20036;-69
2023/10/26 08:14:06;;;;;;;20.33;13.73;;;11.80;99.90;;;;;;4124292;28;20188;-69
2023/10/26 08:16:07;;;;;;;18.35;11.70;;;11.80;99.90;;;;;;4121481;28;20030;-69
2023/10/26 08:18:07;;;;;;;15.48;11.55;;;11.80;99.90;;;;;;4124030;28;20034;-68
2023/10/26 08:20:08;;;;;;;16.35;11.98;;;11.80;99.90;;;;;;4123449;28;20118;-69
2023/10/26 08:22:10;;;;;;;14.82;10.90;;;11.80;99.90;;;;;;4122473;28;20493;-69
2023/10/26 08:24:11;;;;;;;16.75;11.93;;;11.80;99.90;;;;;;4106217;28;20094;-69
2023/10/26 08:26:12;;;;;;;18.60;13.85;;;11.80;99.90;;;;;;4124019;28;20042;-69
2023/10/26 08:28:13;;;;;;;14.55;11.10;;;11.80;99.90;;;;;;4123318;28;20038;-69
2023/10/26 08:30:15;;;;;;;14.45;10.98;;;11.80;99.90;;;;;;4125384;28;20062;-69
2023/10/26 08:32:15;;;;;;;14.77;10.82;;;11.80;99.90;;;;;;4127236;28;20361;-69
2023/10/26 08:34:16;;;;;;;15.75;11.25;;;11.70;99.90;;;;;;4128682;28;20037;-71
2023/10/26 08:36:16;;;;;;;14.93;11.25;;;11.70;99.90;;;;;;4130750;28;20034;-70
2023/10/26 08:38:17;;;;;;;12.90;9.85;;;11.70;99.90;;;;;;4128638;28;20130;-71
2023/10/26 08:40:18;;;;;;;12.23;9.50;;;11.70;99.90;;;;;;4126893;28;20034;-70
2023/10/26 08:42:19;;;;;;;15.00;10.85;;;11.70;99.90;;;;;;4129158;28;20038;-70
2023/10/26 08:44:19;;;;;;;16.05;11.70;;;11.60;99.90;;;;;;4130182;28;20049;-70
2023/10/26 08:46:20;;;;;;;13.18;9.68;;;11.60;99.90;;;;;;4127378;28;20100;-70
2023/10/26 08:48:23;;;;;;;13.15;9.75;;;11.70;99.90;;;;;;4110680;28;20034;-70
2023/10/26 08:50:24;;;;;;;13.00;9.55;;;11.70;99.90;;;;;;4130803;28;21378;-70
2023/10/26 08:52:26;;;;;;;13.65;9.52;;;11.70;99.90;;;;;;4130110;28;20042;-70
2023/10/26 08:54:27;;;;;;;13.50;9.85;;;11.70;99.90;;;;;;4131936;28;20038;-70
2023/10/26 08:56:28;;;;;;;13.32;10.07;;;11.70;99.90;;;;;;4127582;28;20065;-70
2023/10/26 08:58:28;;;;;;;16.45;10.90;;;11.70;99.90;;;;;;4129142;28;20034;-70
2023/10/26 09:00:33;;;;;;;14.75;10.63;;;11.60;99.90;;;;;;4126527;28;20092;-70
2023/10/26 09:02:33;;;;;;;15.70;11.30;;;11.60;99.90;;;;;;4127900;28;20056;-70
2023/10/26 09:04:34;;;;;;;13.77;10.27;;;11.60;99.90;;;;;;4129897;28;20034;-71
2023/10/26 09:06:48;;;;;;;12.73;10.23;;;11.60;99.90;;;;;;4125783;28;20069;-71
2023/10/26 09:09:16;;;;;;;14.20;9.57;;;11.50;99.90;;;;;;4128665;28;20052;-70
2023/10/26 09:11:21;;;;;;;13.10;8.70;;;11.60;99.90;;;;;;4122363;28;20656;-70
2023/10/26 09:13:28;;;;;;;11.10;8.77;;;11.60;99.90;;;;;;4127663;28;20108;-70
2023/10/26 09:15:30;;;;;;;11.55;8.88;;;11.70;99.90;;;;;;4108033;28;20046;-70
2023/10/26 09:17:31;;;;;;;16.40;10.93;;;11.70;99.90;;;;;;4127780;28;20645;-70
2023/10/26 09:19:38;;;;;;;12.80;9.35;;;11.70;99.90;;;;;;4109006;28;20058;-70
2023/10/26 09:21:50;;;;;;;12.65;9.48;;;11.80;99.90;;;;;;4125270;28;20050;-70
2023/10/26 09:23:51;;;;;;;13.13;9.02;;;11.90;99.90;;;;;;4127142;28;20042;-70
2023/10/26 09:26:03;;;;;;;11.27;9.48;;;11.90;99.90;;;;;;4125284;28;20140;-70
2023/10/26 09:28:04;;;;;;;13.75;10.38;;;12.10;99.90;;;;;;4126692;28;20165;-71
2023/10/26 09:30:06;;;;;;;12.93;8.80;;;12.20;99.90;;;;;;4131338;28;20398;-72
2023/10/26 09:32:08;;;;;;;12.73;9.52;;;12.20;99.90;;;;;;4138251;28;20034;-70
2023/10/26 09:34:12;;;;;;;15.00;10.33;;;12.20;99.90;;;;;;4139796;28;20026;-70
2023/10/26 09:36:14;;;;;;;16.05;10.80;;;12.30;99.90;;;;;;4138999;28;20050;-70
2023/10/26 09:38:17;;;;;;;14.10;11.05;;;12.30;99.90;;;;;;4138725;28;20109;-70
2023/10/26 09:40:18;;;;;;;;;;;12.30;99.90;;;;;;4135312;28;20042;-70
2023/10/26 09:42:20;;;;;;;10.65;8.40;;;12.30;99.90;;;;;;4138064;28;19910;-70
2023/10/26 09:44:20;;;;;;;14.23;8.88;;;12.30;99.90;;;;;;4139992;28;20477;-73
2023/10/26 09:46:21;;;;;;;11.80;9.18;;;12.40;99.90;;;;;;4138106;28;20034;-72
2023/10/26 09:48:23;;;;;;;11.15;9.25;;;12.40;99.90;;;;;;4140860;28;20037;-72
2023/10/26 09:50:24;;;;;;;13.40;9.30;;;12.40;99.90;;;;;;4138556;28;20096;-73
2023/10/26 09:52:24;;;;;;;12.25;9.65;;;12.50;99.90;;;;;;4139051;28;20049;-73
2023/10/26 09:54:30;;;;;;;12.85;9.55;;;12.50;99.90;;;;;;4138497;28;20049;-73
2023/10/26 09:56:32;;;;;;;12.13;8.75;;;12.60;99.90;;;;;;4136496;28;20386;-73
2023/10/26 09:58:41;;;;;;;10.60;8.50;;;12.60;99.90;;;;;;4140046;28;20030;-73
2023/10/26 10:00:42;;;;;;;11.95;9.27;;;12.60;99.90;;;;;;4135087;28;20032;-73
2023/10/26 10:02:43;;;;;;;11.60;9.00;;;12.60;99.90;;;;;;4136375;28;20498;-73
2023/10/26 10:04:44;;;;;;;10.63;8.13;;;12.70;99.90;;;;;;4138746;28;20058;-73
2023/10/26 10:06:51;;;;;;;12.23;9.55;;;12.70;99.90;;;;;;4140371;28;20034;-73
2023/10/26 10:08:59;;;;;;;13.02;8.40;;;12.70;99.90;;;;;;4138273;28;20050;-73
2023/10/26 10:11:25;;;;;;;11.02;8.77;;;12.70;99.90;;;;;;4140601;28;20474;-73
2023/10/26 10:13:36;;;;;;;10.60;7.88;;;12.70;99.90;;;;;;4138598;28;20128;-73
2023/10/26 10:15:39;;;;;;;10.45;7.88;;;12.70;99.90;;;;;;4138738;28;20037;-73
2023/10/26 10:17:42;;;;;;;;;;;12.80;99.90;;;;;;4144750;28;20051;-73
2023/10/26 10:19:46;;;;;;;11.60;8.45;;;12.80;99.90;;;;;;4141631;28;19913;-73